sensor_id;sensor_type;location;lat;lon;timestamp;temperature;humidity
21355;DHT22;10835;50.148;19.760;2024-02-23T00:01:48;25.50;39.00
21355;DHT22;10835;50.148;19.760;2024-02-23T00:04:17;25.30;39.80
21355;DHT22;10835;50.148;19.760;2024-02-23T00:06:46;25.10;39.90
21355;DHT22;10835;50.148;19.760;2024-02-23T00:09:14;25.30;40.30
21355;DHT22;10835;50.148;19.760;2024-02-23T00:11:43;25.60;40.10
21355;DHT22;10835;50.148;19.760;2024-02-23T00:14:12;25.40;40.50
21355;DHT22;10835;50.148;19.760;2024-02-23T00:16:42;25.60;40.70
21355;DHT22;10835;50.148;19.760;2024-02-23T00:19:11;25.70;40.70
21355;DHT22;10835;50.148;19.760;2024-02-23T00:21:39;25.60;40.50
21355;DHT22;10835;50.148;19.760;2024-02-23T00:24:09;25.60;41.10
21355;DHT22;10835;50.148;19.760;2024-02-23T00:26:37;25.60;41.00
21355;DHT22;10835;50.148;19.760;2024-02-23T00:29:06;25.60;40.80
21355;DHT22;10835;50.148;19.760;2024-02-23T00:31:34;25.40;41.20
21355;DHT22;10835;50.148;19.760;2024-02-23T00:34:04;25.40;41.60
21355;DHT22;10835;50.148;19.760;2024-02-23T00:36:38;25.10;41.50
21355;DHT22;10835;50.148;19.760;2024-02-23T00:39:06;24.40;41.90
21355;DHT22;10835;50.148;19.760;2024-02-23T00:41:35;24.30;43.10
21355;DHT22;10835;50.148;19.760;2024-02-23T00:44:04;24.50;43.30
21355;DHT22;10835;50.148;19.760;2024-02-23T00:46:33;24.40;42.90
21355;DHT22;10835;50.148;19.760;2024-02-23T00:49:03;24.90;42.50
21355;DHT22;10835;50.148;19.760;2024-02-23T00:51:32;24.90;42.50
21355;DHT22;10835;50.148;19.760;2024-02-23T00:54:00;24.90;42.80
21355;DHT22;10835;50.148;19.760;2024-02-23T00:56:29;25.00;42.70
21355;DHT22;10835;50.148;19.760;2024-02-23T00:59:11;25.10;42.50
21355;DHT22;10835;50.148;19.760;2024-02-23T01:01:40;25.20;42.10
21355;DHT22;10835;50.148;19.760;2024-02-23T01:04:10;25.20;42.50
21355;DHT22;10835;50.148;19.760;2024-02-23T01:06:38;25.20;42.60
21355;DHT22;10835;50.148;19.760;2024-02-23T01:09:07;25.00;42.60
21355;DHT22;10835;50.148;19.760;2024-02-23T01:11:35;25.10;42.90
21355;DHT22;10835;50.148;19.760;2024-02-23T01:14:04;25.10;42.90
21355;DHT22;10835;50.148;19.760;2024-02-23T01:16:34;24.90;42.70
21355;DHT22;10835;50.148;19.760;2024-02-23T01:19:02;24.90;42.90
21355;DHT22;10835;50.148;19.760;2024-02-23T01:21:32;24.20;43.00
21355;DHT22;10835;50.148;19.760;2024-02-23T01:24:00;24.40;43.70
21355;DHT22;10835;50.148;19.760;2024-02-23T01:26:29;23.70;43.80
21355;DHT22;10835;50.148;19.760;2024-02-23T01:28:57;24.00;45.00
21355;DHT22;10835;50.148;19.760;2024-02-23T01:31:26;24.40;44.80
21355;DHT22;10835;50.148;19.760;2024-02-23T01:33:54;24.70;44.10
21355;DHT22;10835;50.148;19.760;2024-02-23T01:36:23;24.00;44.10
21355;DHT22;10835;50.148;19.760;2024-02-23T01:38:53;24.20;44.60
21355;DHT22;10835;50.148;19.760;2024-02-23T01:41:22;24.20;44.50
21355;DHT22;10835;50.148;19.760;2024-02-23T01:43:50;24.50;44.00
21355;DHT22;10835;50.148;19.760;2024-02-23T01:46:19;24.50;44.30
21355;DHT22;10835;50.148;19.760;2024-02-23T01:48:48;24.70;44.10
21355;DHT22;10835;50.148;19.760;2024-02-23T01:51:16;24.90;43.90
21355;DHT22;10835;50.148;19.760;2024-02-23T01:53:45;24.60;44.00
21355;DHT22;10835;50.148;19.760;2024-02-23T01:56:15;24.30;44.40
21355;DHT22;10835;50.148;19.760;2024-02-23T01:58:47;24.10;44.60
21355;DHT22;10835;50.148;19.760;2024-02-23T02:01:16;24.40;44.70
21355;DHT22;10835;50.148;19.760;2024-02-23T02:03:44;24.40;44.60
21355;DHT22;10835;50.148;19.760;2024-02-23T02:06:13;24.10;44.50
21355;DHT22;10835;50.148;19.760;2024-02-23T02:08:42;23.70;45.00
21355;DHT22;10835;50.148;19.760;2024-02-23T02:11:11;24.10;45.30
21355;DHT22;10835;50.148;19.760;2024-02-23T02:13:41;24.00;45.00
21355;DHT22;10835;50.148;19.760;2024-02-23T02:16:09;24.30;44.80
21355;DHT22;10835;50.148;19.760;2024-02-23T02:18:38;24.40;44.60
21355;DHT22;10835;50.148;19.760;2024-02-23T02:21:06;24.30;44.70
21355;DHT22;10835;50.148;19.760;2024-02-23T02:23:35;24.30;44.80
21355;DHT22;10835;50.148;19.760;2024-02-23T02:26:04;24.00;44.70
21355;DHT22;10835;50.148;19.760;2024-02-23T02:28:33;24.00;45.00
21355;DHT22;10835;50.148;19.760;2024-02-23T02:31:03;23.90;44.60
21355;DHT22;10835;50.148;19.760;2024-02-23T02:33:31;23.20;45.70
21355;DHT22;10835;50.148;19.760;2024-02-23T02:36:00;23.40;46.10
21355;DHT22;10835;50.148;19.760;2024-02-23T02:38:29;23.90;45.10
21355;DHT22;10835;50.148;19.760;2024-02-23T02:40:58;23.70;45.50
21355;DHT22;10835;50.148;19.760;2024-02-23T02:43:27;23.90;45.40
21355;DHT22;10835;50.148;19.760;2024-02-23T02:45:56;24.00;45.00
21355;DHT22;10835;50.148;19.760;2024-02-23T02:48:26;23.70;45.20
21355;DHT22;10835;50.148;19.760;2024-02-23T02:50:55;23.40;45.70
21355;DHT22;10835;50.148;19.760;2024-02-23T02:53:23;23.80;45.50
21355;DHT22;10835;50.148;19.760;2024-02-23T02:55:52;23.80;45.50
21355;DHT22;10835;50.148;19.760;2024-02-23T02:58:20;24.10;45.10
21355;DHT22;10835;50.148;19.760;2024-02-23T03:00:49;24.30;44.60
21355;DHT22;10835;50.148;19.760;2024-02-23T03:03:17;24.40;44.30
21355;DHT22;10835;50.148;19.760;2024-02-23T03:05:47;24.10;44.60
21355;DHT22;10835;50.148;19.760;2024-02-23T03:08:16;24.40;44.40
21355;DHT22;10835;50.148;19.760;2024-02-23T03:10:44;24.00;44.50
21355;DHT22;10835;50.148;19.760;2024-02-23T03:13:13;23.80;45.00
21355;DHT22;10835;50.148;19.760;2024-02-23T03:15:42;24.00;45.10
21355;DHT22;10835;50.148;19.760;2024-02-23T03:18:10;24.30;44.70
21355;DHT22;10835;50.148;19.760;2024-02-23T03:20:40;24.40;44.20
21355;DHT22;10835;50.148;19.760;2024-02-23T03:23:10;24.20;44.40
21355;DHT22;10835;50.148;19.760;2024-02-23T03:25:39;24.20;44.40
21355;DHT22;10835;50.148;19.760;2024-02-23T03:28:07;23.90;44.90
21355;DHT22;10835;50.148;19.760;2024-02-23T03:30:36;23.90;45.20
21355;DHT22;10835;50.148;19.760;2024-02-23T03:33:05;23.60;45.00
21355;DHT22;10835;50.148;19.760;2024-02-23T03:35:33;23.90;45.20
21355;DHT22;10835;50.148;19.760;2024-02-23T03:38:02;24.10;45.00
21355;DHT22;10835;50.148;19.760;2024-02-23T03:40:32;23.70;44.80
21355;DHT22;10835;50.148;19.760;2024-02-23T03:43:01;23.30;45.50
21355;DHT22;10835;50.148;19.760;2024-02-23T03:45:29;23.50;45.90
21355;DHT22;10835;50.148;19.760;2024-02-23T03:47:58;23.90;45.30
21355;DHT22;10835;50.148;19.760;2024-02-23T03:50:27;24.00;45.00
21355;DHT22;10835;50.148;19.760;2024-02-23T03:52:56;23.70;45.30
21355;DHT22;10835;50.148;19.760;2024-02-23T03:55:24;23.90;45.30
21355;DHT22;10835;50.148;19.760;2024-02-23T03:57:54;24.20;45.10
21355;DHT22;10835;50.148;19.760;2024-02-23T04:00:23;24.30;45.00
21355;DHT22;10835;50.148;19.760;2024-02-23T04:02:51;24.60;44.80
21355;DHT22;10835;50.148;19.760;2024-02-23T04:05:24;24.20;44.90
21355;DHT22;10835;50.148;19.760;2024-02-23T04:07:52;24.50;44.80
21355;DHT22;10835;50.148;19.760;2024-02-23T04:10:21;24.60;44.80
21355;DHT22;10835;50.148;19.760;2024-02-23T04:12:54;24.70;44.50
21355;DHT22;10835;50.148;19.760;2024-02-23T04:15:23;24.40;44.70
21355;DHT22;10835;50.148;19.760;2024-02-23T04:17:51;24.10;45.40
21355;DHT22;10835;50.148;19.760;2024-02-23T04:20:20;24.20;45.40
21355;DHT22;10835;50.148;19.760;2024-02-23T04:22:49;24.30;45.70
21355;DHT22;10835;50.148;19.760;2024-02-23T04:25:17;24.10;45.20
21355;DHT22;10835;50.148;19.760;2024-02-23T04:27:46;23.70;46.50
21355;DHT22;10835;50.148;19.760;2024-02-23T04:30:16;24.10;46.30
21355;DHT22;10835;50.148;19.760;2024-02-23T04:32:45;24.30;46.20
21355;DHT22;10835;50.148;19.760;2024-02-23T04:35:14;24.00;46.00
21355;DHT22;10835;50.148;19.760;2024-02-23T04:37:43;23.60;46.30
21355;DHT22;10835;50.148;19.760;2024-02-23T04:40:12;23.60;47.60
21355;DHT22;10835;50.148;19.760;2024-02-23T04:42:43;23.70;47.10
21355;DHT22;10835;50.148;19.760;2024-02-23T04:45:12;23.50;47.60
21355;DHT22;10835;50.148;19.760;2024-02-23T04:47:42;23.50;47.90
21355;DHT22;10835;50.148;19.760;2024-02-23T04:50:10;24.00;47.60
21355;DHT22;10835;50.148;19.760;2024-02-23T04:52:39;23.80;47.20
21355;DHT22;10835;50.148;19.760;2024-02-23T04:55:08;23.10;47.50
21355;DHT22;10835;50.148;19.760;2024-02-23T04:57:36;23.70;47.60
21355;DHT22;10835;50.148;19.760;2024-02-23T05:00:06;23.70;47.90
21355;DHT22;10835;50.148;19.760;2024-02-23T05:02:35;23.60;47.20
21355;DHT22;10835;50.148;19.760;2024-02-23T05:05:06;24.10;47.00
21355;DHT22;10835;50.148;19.760;2024-02-23T05:07:35;24.10;46.80
21355;DHT22;10835;50.148;19.760;2024-02-23T05:10:04;24.30;46.70
21355;DHT22;10835;50.148;19.760;2024-02-23T05:12:33;24.10;47.00
21355;DHT22;10835;50.148;19.760;2024-02-23T05:15:01;24.20;46.80
21355;DHT22;10835;50.148;19.760;2024-02-23T05:17:30;23.80;46.60
21355;DHT22;10835;50.148;19.760;2024-02-23T05:19:59;23.60;47.40
21355;DHT22;10835;50.148;19.760;2024-02-23T05:22:29;23.60;47.90
21355;DHT22;10835;50.148;19.760;2024-02-23T05:24:57;23.80;47.80
21355;DHT22;10835;50.148;19.760;2024-02-23T05:27:26;23.90;47.50
21355;DHT22;10835;50.148;19.760;2024-02-23T05:29:55;23.60;47.70
21355;DHT22;10835;50.148;19.760;2024-02-23T05:32:24;23.90;47.50
21355;DHT22;10835;50.148;19.760;2024-02-23T05:34:52;23.90;47.50
21355;DHT22;10835;50.148;19.760;2024-02-23T05:37:21;23.20;47.70
21355;DHT22;10835;50.148;19.760;2024-02-23T05:39:51;22.80;49.00
21355;DHT22;10835;50.148;19.760;2024-02-23T05:42:20;22.90;49.00
21355;DHT22;10835;50.148;19.760;2024-02-23T05:44:49;23.20;49.20
21355;DHT22;10835;50.148;19.760;2024-02-23T05:47:17;23.70;48.30
21355;DHT22;10835;50.148;19.760;2024-02-23T05:49:48;23.60;48.10
21355;DHT22;10835;50.148;19.760;2024-02-23T05:52:16;23.50;48.40
21355;DHT22;10835;50.148;19.760;2024-02-23T05:54:45;23.70;48.60
21355;DHT22;10835;50.148;19.760;2024-02-23T05:57:19;23.90;48.20
21355;DHT22;10835;50.148;19.760;2024-02-23T05:59:48;24.20;47.20
21355;DHT22;10835;50.148;19.760;2024-02-23T06:02:16;24.50;46.70
21355;DHT22;10835;50.148;19.760;2024-02-23T06:04:45;24.60;46.60
21355;DHT22;10835;50.148;19.760;2024-02-23T06:07:14;24.70;46.00
21355;DHT22;10835;50.148;19.760;2024-02-23T06:09:43;24.80;45.90
21355;DHT22;10835;50.148;19.760;2024-02-23T06:12:11;24.90;45.60
21355;DHT22;10835;50.148;19.760;2024-02-23T06:14:41;25.10;45.40
21355;DHT22;10835;50.148;19.760;2024-02-23T06:17:10;25.10;45.70
21355;DHT22;10835;50.148;19.760;2024-02-23T06:19:39;25.20;45.30
21355;DHT22;10835;50.148;19.760;2024-02-23T06:22:08;25.20;45.30
21355;DHT22;10835;50.148;19.760;2024-02-23T06:24:37;25.20;45.60
21355;DHT22;10835;50.148;19.760;2024-02-23T06:27:05;25.30;45.50
21355;DHT22;10835;50.148;19.760;2024-02-23T06:29:35;25.30;45.30
21355;DHT22;10835;50.148;19.760;2024-02-23T06:32:06;25.40;45.10
21355;DHT22;10835;50.148;19.760;2024-02-23T06:34:35;25.50;45.10
21355;DHT22;10835;50.148;19.760;2024-02-23T06:37:03;25.50;45.10
21355;DHT22;10835;50.148;19.760;2024-02-23T06:39:32;25.60;44.90
21355;DHT22;10835;50.148;19.760;2024-02-23T06:42:01;25.60;45.00
21355;DHT22;10835;50.148;19.760;2024-02-23T06:44:31;25.70;45.00
21355;DHT22;10835;50.148;19.760;2024-02-23T06:47:00;25.80;45.10
21355;DHT22;10835;50.148;19.760;2024-02-23T06:49:30;25.80;45.20
21355;DHT22;10835;50.148;19.760;2024-02-23T06:51:59;25.90;44.90
21355;DHT22;10835;50.148;19.760;2024-02-23T06:54:27;25.90;44.70
21355;DHT22;10835;50.148;19.760;2024-02-23T06:56:56;25.90;44.90
21355;DHT22;10835;50.148;19.760;2024-02-23T06:59:24;25.90;44.90
21355;DHT22;10835;50.148;19.760;2024-02-23T07:01:53;25.90;44.70
21355;DHT22;10835;50.148;19.760;2024-02-23T07:04:22;26.00;44.80
21355;DHT22;10835;50.148;19.760;2024-02-23T07:06:52;26.00;44.80
21355;DHT22;10835;50.148;19.760;2024-02-23T07:09:21;25.90;45.20
21355;DHT22;10835;50.148;19.760;2024-02-23T07:11:49;25.90;44.60
21355;DHT22;10835;50.148;19.760;2024-02-23T07:14:17;25.90;44.50
21355;DHT22;10835;50.148;19.760;2024-02-23T07:16:47;25.90;44.70
21355;DHT22;10835;50.148;19.760;2024-02-23T07:19:16;25.90;44.40
21355;DHT22;10835;50.148;19.760;2024-02-23T07:21:44;25.90;45.00
21355;DHT22;10835;50.148;19.760;2024-02-23T07:24:14;25.80;45.00
21355;DHT22;10835;50.148;19.760;2024-02-23T07:26:42;25.70;45.40
21355;DHT22;10835;50.148;19.760;2024-02-23T07:29:11;25.70;45.20
21355;DHT22;10835;50.148;19.760;2024-02-23T07:31:43;25.50;45.70
21355;DHT22;10835;50.148;19.760;2024-02-23T07:34:12;25.40;46.00
21355;DHT22;10835;50.148;19.760;2024-02-23T07:36:41;25.40;46.40
21355;DHT22;10835;50.148;19.760;2024-02-23T07:39:10;25.40;46.40
21355;DHT22;10835;50.148;19.760;2024-02-23T07:41:41;25.60;45.90
21355;DHT22;10835;50.148;19.760;2024-02-23T07:44:09;25.60;46.20
21355;DHT22;10835;50.148;19.760;2024-02-23T07:46:38;25.60;45.70
21355;DHT22;10835;50.148;19.760;2024-02-23T07:49:06;25.70;45.80
21355;DHT22;10835;50.148;19.760;2024-02-23T07:51:35;25.70;45.60
21355;DHT22;10835;50.148;19.760;2024-02-23T07:54:03;25.70;45.70
21355;DHT22;10835;50.148;19.760;2024-02-23T07:56:32;25.70;45.30
21355;DHT22;10835;50.148;19.760;2024-02-23T07:59:02;25.70;45.20
21355;DHT22;10835;50.148;19.760;2024-02-23T08:01:30;25.80;45.20
21355;DHT22;10835;50.148;19.760;2024-02-23T08:03:59;25.90;45.70
21355;DHT22;10835;50.148;19.760;2024-02-23T08:06:27;25.90;45.40
21355;DHT22;10835;50.148;19.760;2024-02-23T08:08:56;25.90;45.20
21355;DHT22;10835;50.148;19.760;2024-02-23T08:11:24;25.90;45.30
21355;DHT22;10835;50.148;19.760;2024-02-23T08:13:53;25.90;45.20
21355;DHT22;10835;50.148;19.760;2024-02-23T08:16:23;26.00;45.50
21355;DHT22;10835;50.148;19.760;2024-02-23T08:18:51;26.00;45.10
21355;DHT22;10835;50.148;19.760;2024-02-23T08:21:20;26.10;44.80
21355;DHT22;10835;50.148;19.760;2024-02-23T08:23:49;26.00;45.10
21355;DHT22;10835;50.148;19.760;2024-02-23T08:26:17;26.00;45.20
21355;DHT22;10835;50.148;19.760;2024-02-23T08:28:46;25.90;45.30
21355;DHT22;10835;50.148;19.760;2024-02-23T08:31:14;25.90;45.20
21355;DHT22;10835;50.148;19.760;2024-02-23T08:33:45;26.00;45.20
21355;DHT22;10835;50.148;19.760;2024-02-23T08:36:14;26.00;45.20
21355;DHT22;10835;50.148;19.760;2024-02-23T08:38:42;26.00;44.80
21355;DHT22;10835;50.148;19.760;2024-02-23T08:41:11;26.00;44.90
21355;DHT22;10835;50.148;19.760;2024-02-23T08:43:40;25.90;45.20
21355;DHT22;10835;50.148;19.760;2024-02-23T08:46:08;25.90;45.00
21355;DHT22;10835;50.148;19.760;2024-02-23T08:48:36;25.90;45.10
21355;DHT22;10835;50.148;19.760;2024-02-23T08:51:07;25.90;45.30
21355;DHT22;10835;50.148;19.760;2024-02-23T08:53:35;26.00;45.20
21355;DHT22;10835;50.148;19.760;2024-02-23T08:56:06;26.10;44.80
21355;DHT22;10835;50.148;19.760;2024-02-23T08:58:34;26.10;45.10
21355;DHT22;10835;50.148;19.760;2024-02-23T09:01:03;25.80;45.20
21355;DHT22;10835;50.148;19.760;2024-02-23T09:03:32;25.90;45.50
21355;DHT22;10835;50.148;19.760;2024-02-23T09:06:01;25.90;45.30
21355;DHT22;10835;50.148;19.760;2024-02-23T09:08:35;26.00;45.20
21355;DHT22;10835;50.148;19.760;2024-02-23T09:11:04;25.90;45.20
21355;DHT22;10835;50.148;19.760;2024-02-23T09:13:33;25.80;45.60
21355;DHT22;10835;50.148;19.760;2024-02-23T09:16:01;25.80;45.80
21355;DHT22;10835;50.148;19.760;2024-02-23T09:18:30;25.90;45.70
21355;DHT22;10835;50.148;19.760;2024-02-23T09:20:59;26.00;45.60
21355;DHT22;10835;50.148;19.760;2024-02-23T09:23:28;26.10;45.70
21355;DHT22;10835;50.148;19.760;2024-02-23T09:25:58;26.10;45.40
21355;DHT22;10835;50.148;19.760;2024-02-23T09:28:29;26.10;45.40
21355;DHT22;10835;50.148;19.760;2024-02-23T09:30:58;26.10;45.20
21355;DHT22;10835;50.148;19.760;2024-02-23T09:33:26;26.10;45.30
21355;DHT22;10835;50.148;19.760;2024-02-23T09:35:55;26.20;45.30
21355;DHT22;10835;50.148;19.760;2024-02-23T09:38:23;26.20;45.30
21355;DHT22;10835;50.148;19.760;2024-02-23T09:40:52;26.30;45.60
21355;DHT22;10835;50.148;19.760;2024-02-23T09:43:22;26.30;45.50
21355;DHT22;10835;50.148;19.760;2024-02-23T09:45:52;26.30;45.10
21355;DHT22;10835;50.148;19.760;2024-02-23T09:48:22;25.70;44.90
21355;DHT22;10835;50.148;19.760;2024-02-23T09:50:52;25.60;45.90
21355;DHT22;10835;50.148;19.760;2024-02-23T09:53:21;25.50;45.90
21355;DHT22;10835;50.148;19.760;2024-02-23T09:55:50;25.00;46.00
21355;DHT22;10835;50.148;19.760;2024-02-23T09:58:19;24.50;46.30
21355;DHT22;10835;50.148;19.760;2024-02-23T10:00:50;24.40;47.80
21355;DHT22;10835;50.148;19.760;2024-02-23T10:03:18;24.20;47.90
21355;DHT22;10835;50.148;19.760;2024-02-23T10:05:47;24.60;48.20
21355;DHT22;10835;50.148;19.760;2024-02-23T10:08:16;24.60;47.40
21355;DHT22;10835;50.148;19.760;2024-02-23T10:10:46;24.60;47.50
21355;DHT22;10835;50.148;19.760;2024-02-23T10:13:18;24.80;47.10
21355;DHT22;10835;50.148;19.760;2024-02-23T10:15:48;24.70;47.20
21355;DHT22;10835;50.148;19.760;2024-02-23T10:18:39;24.90;47.60
21355;DHT22;10835;50.148;19.760;2024-02-23T10:21:08;24.90;47.70
21355;DHT22;10835;50.148;19.760;2024-02-23T10:23:36;25.10;47.30
21355;DHT22;10835;50.148;19.760;2024-02-23T10:26:05;25.20;46.80
21355;DHT22;10835;50.148;19.760;2024-02-23T10:28:34;25.30;46.90
21355;DHT22;10835;50.148;19.760;2024-02-23T10:31:04;25.30;46.70
21355;DHT22;10835;50.148;19.760;2024-02-23T10:33:36;25.30;46.90
21355;DHT22;10835;50.148;19.760;2024-02-23T10:36:08;25.30;47.10
21355;DHT22;10835;50.148;19.760;2024-02-23T10:38:38;25.40;47.20
21355;DHT22;10835;50.148;19.760;2024-02-23T10:41:09;25.60;46.80
21355;DHT22;10835;50.148;19.760;2024-02-23T10:43:43;25.60;46.80
21355;DHT22;10835;50.148;19.760;2024-02-23T10:46:12;25.40;46.50
21355;DHT22;10835;50.148;19.760;2024-02-23T10:48:42;24.90;46.60
21355;DHT22;10835;50.148;19.760;2024-02-23T10:51:14;24.40;47.40
21355;DHT22;10835;50.148;19.760;2024-02-23T10:53:49;24.20;47.90
21355;DHT22;10835;50.148;19.760;2024-02-23T10:56:18;24.20;48.90
21355;DHT22;10835;50.148;19.760;2024-02-23T10:58:49;24.30;48.20
21355;DHT22;10835;50.148;19.760;2024-02-23T11:01:19;24.80;48.10
21355;DHT22;10835;50.148;19.760;2024-02-23T11:03:49;24.90;48.50
21355;DHT22;10835;50.148;19.760;2024-02-23T11:06:19;24.90;47.20
21355;DHT22;10835;50.148;19.760;2024-02-23T11:08:49;25.10;47.60
21355;DHT22;10835;50.148;19.760;2024-02-23T11:11:19;24.70;47.60
21355;DHT22;10835;50.148;19.760;2024-02-23T11:13:48;24.40;47.50
21355;DHT22;10835;50.148;19.760;2024-02-23T11:16:22;24.50;47.80
21355;DHT22;10835;50.148;19.760;2024-02-23T11:19:03;24.70;48.20
21355;DHT22;10835;50.148;19.760;2024-02-23T11:21:37;24.50;48.00
21355;DHT22;10835;50.148;19.760;2024-02-23T11:24:06;25.00;47.80
21355;DHT22;10835;50.148;19.760;2024-02-23T11:26:37;25.00;47.20
21355;DHT22;10835;50.148;19.760;2024-02-23T11:29:12;24.70;47.10
21355;DHT22;10835;50.148;19.760;2024-02-23T11:31:46;25.00;47.90
21355;DHT22;10835;50.148;19.760;2024-02-23T11:34:22;24.50;47.10
21355;DHT22;10835;50.148;19.760;2024-02-23T11:36:53;24.60;48.10
21355;DHT22;10835;50.148;19.760;2024-02-23T11:39:22;25.00;47.40
21355;DHT22;10835;50.148;19.760;2024-02-23T11:41:51;25.10;46.60
21355;DHT22;10835;50.148;19.760;2024-02-23T11:44:19;24.90;47.10
21355;DHT22;10835;50.148;19.760;2024-02-23T11:46:48;25.30;46.90
21355;DHT22;10835;50.148;19.760;2024-02-23T11:49:16;25.30;46.80
21355;DHT22;10835;50.148;19.760;2024-02-23T11:51:45;25.60;47.00
21355;DHT22;10835;50.148;19.760;2024-02-23T11:54:15;25.80;46.10
21355;DHT22;10835;50.148;19.760;2024-02-23T11:56:43;26.00;46.30
21355;DHT22;10835;50.148;19.760;2024-02-23T11:59:13;26.10;46.10
21355;DHT22;10835;50.148;19.760;2024-02-23T12:01:41;26.20;45.40
21355;DHT22;10835;50.148;19.760;2024-02-23T12:04:10;26.00;45.00
21355;DHT22;10835;50.148;19.760;2024-02-23T12:06:39;26.00;44.90
21355;DHT22;10835;50.148;19.760;2024-02-23T12:09:09;26.10;45.50
21355;DHT22;10835;50.148;19.760;2024-02-23T12:11:42;25.90;45.30
21355;DHT22;10835;50.148;19.760;2024-02-23T12:14:11;26.00;46.00
21355;DHT22;10835;50.148;19.760;2024-02-23T12:16:40;26.20;46.10
21355;DHT22;10835;50.148;19.760;2024-02-23T12:19:09;26.20;45.20
21355;DHT22;10835;50.148;19.760;2024-02-23T12:21:38;26.30;45.30
21355;DHT22;10835;50.148;19.760;2024-02-23T12:24:07;26.20;46.40
21355;DHT22;10835;50.148;19.760;2024-02-23T12:26:35;26.40;45.70
21355;DHT22;10835;50.148;19.760;2024-02-23T12:29:05;26.50;45.50
21355;DHT22;10835;50.148;19.760;2024-02-23T12:31:34;26.40;45.00
21355;DHT22;10835;50.148;19.760;2024-02-23T12:34:03;26.40;45.20
21355;DHT22;10835;50.148;19.760;2024-02-23T12:36:35;26.40;45.30
21355;DHT22;10835;50.148;19.760;2024-02-23T12:39:04;26.20;45.00
21355;DHT22;10835;50.148;19.760;2024-02-23T12:41:33;26.40;44.80
21355;DHT22;10835;50.148;19.760;2024-02-23T12:44:01;26.50;45.00
21355;DHT22;10835;50.148;19.760;2024-02-23T12:46:31;26.50;45.10
21355;DHT22;10835;50.148;19.760;2024-02-23T12:48:59;26.50;45.20
21355;DHT22;10835;50.148;19.760;2024-02-23T12:51:28;26.70;45.20
21355;DHT22;10835;50.148;19.760;2024-02-23T12:53:56;26.70;44.30
21355;DHT22;10835;50.148;19.760;2024-02-23T12:56:25;26.80;45.00
21355;DHT22;10835;50.148;19.760;2024-02-23T12:58:53;26.10;44.80
21355;DHT22;10835;50.148;19.760;2024-02-23T13:01:22;26.10;45.20
21355;DHT22;10835;50.148;19.760;2024-02-23T13:03:53;25.80;45.70
21355;DHT22;10835;50.148;19.760;2024-02-23T13:06:22;26.10;45.70
21355;DHT22;10835;50.148;19.760;2024-02-23T13:08:50;26.10;45.90
21355;DHT22;10835;50.148;19.760;2024-02-23T13:11:22;26.30;45.40
21355;DHT22;10835;50.148;19.760;2024-02-23T13:13:51;26.30;45.10
21355;DHT22;10835;50.148;19.760;2024-02-23T13:16:19;26.20;45.20
21355;DHT22;10835;50.148;19.760;2024-02-23T13:18:47;26.10;45.50
21355;DHT22;10835;50.148;19.760;2024-02-23T13:21:20;26.10;45.70
21355;DHT22;10835;50.148;19.760;2024-02-23T13:23:48;26.20;45.50
21355;DHT22;10835;50.148;19.760;2024-02-23T13:26:17;26.40;45.00
21355;DHT22;10835;50.148;19.760;2024-02-23T13:28:45;26.50;44.40
21355;DHT22;10835;50.148;19.760;2024-02-23T13:31:14;26.50;44.80
21355;DHT22;10835;50.148;19.760;2024-02-23T13:33:44;26.50;45.20
21355;DHT22;10835;50.148;19.760;2024-02-23T13:36:13;26.60;44.80
21355;DHT22;10835;50.148;19.760;2024-02-23T13:38:43;26.10;44.80
21355;DHT22;10835;50.148;19.760;2024-02-23T13:41:11;26.10;45.30
21355;DHT22;10835;50.148;19.760;2024-02-23T13:43:40;26.30;45.90
21355;DHT22;10835;50.148;19.760;2024-02-23T13:46:09;26.30;45.40
21355;DHT22;10835;50.148;19.760;2024-02-23T13:48:37;26.40;45.50
21355;DHT22;10835;50.148;19.760;2024-02-23T13:51:06;26.50;45.50
21355;DHT22;10835;50.148;19.760;2024-02-23T13:53:35;26.60;45.20
21355;DHT22;10835;50.148;19.760;2024-02-23T13:56:06;26.70;44.80
21355;DHT22;10835;50.148;19.760;2024-02-23T13:58:34;26.80;44.70
21355;DHT22;10835;50.148;19.760;2024-02-23T14:01:03;26.80;44.50
21355;DHT22;10835;50.148;19.760;2024-02-23T14:03:31;26.70;45.20
21355;DHT22;10835;50.148;19.760;2024-02-23T14:06:00;26.70;44.80
21355;DHT22;10835;50.148;19.760;2024-02-23T14:08:29;26.70;45.00
21355;DHT22;10835;50.148;19.760;2024-02-23T14:10:58;26.70;45.70
21355;DHT22;10835;50.148;19.760;2024-02-23T14:13:28;26.70;45.00
21355;DHT22;10835;50.148;19.760;2024-02-23T14:15:57;26.80;44.90
21355;DHT22;10835;50.148;19.760;2024-02-23T14:18:25;26.80;45.10
21355;DHT22;10835;50.148;19.760;2024-02-23T14:20:54;26.90;45.40
21355;DHT22;10835;50.148;19.760;2024-02-23T14:23:23;26.90;45.10
21355;DHT22;10835;50.148;19.760;2024-02-23T14:25:51;26.80;45.40
21355;DHT22;10835;50.148;19.760;2024-02-23T14:28:20;26.80;45.50
21355;DHT22;10835;50.148;19.760;2024-02-23T14:30:50;26.80;45.70
21355;DHT22;10835;50.148;19.760;2024-02-23T14:33:20;26.80;45.50
21355;DHT22;10835;50.148;19.760;2024-02-23T14:35:49;26.80;45.40
21355;DHT22;10835;50.148;19.760;2024-02-23T14:38:18;26.80;45.50
21355;DHT22;10835;50.148;19.760;2024-02-23T14:40:46;26.70;45.70
21355;DHT22;10835;50.148;19.760;2024-02-23T14:43:15;26.70;45.70
21355;DHT22;10835;50.148;19.760;2024-02-23T14:45:43;26.80;45.70
21355;DHT22;10835;50.148;19.760;2024-02-23T14:48:13;26.80;45.60
21355;DHT22;10835;50.148;19.760;2024-02-23T14:50:42;26.90;45.60
21355;DHT22;10835;50.148;19.760;2024-02-23T14:53:11;26.80;45.40
21355;DHT22;10835;50.148;19.760;2024-02-23T14:55:39;26.90;45.60
21355;DHT22;10835;50.148;19.760;2024-02-23T14:58:08;26.70;45.90
21355;DHT22;10835;50.148;19.760;2024-02-23T15:00:36;26.70;46.00
21355;DHT22;10835;50.148;19.760;2024-02-23T15:03:05;26.70;46.10
21355;DHT22;10835;50.148;19.760;2024-02-23T15:05:37;26.70;46.10
21355;DHT22;10835;50.148;19.760;2024-02-23T15:08:06;26.70;45.80
21355;DHT22;10835;50.148;19.760;2024-02-23T15:10:35;26.60;45.90
21355;DHT22;10835;50.148;19.760;2024-02-23T15:13:04;26.60;45.80
21355;DHT22;10835;50.148;19.760;2024-02-23T15:15:33;26.60;45.80
21355;DHT22;10835;50.148;19.760;2024-02-23T15:18:07;26.60;46.00
21355;DHT22;10835;50.148;19.760;2024-02-23T15:20:37;26.70;46.40
21355;DHT22;10835;50.148;19.760;2024-02-23T15:23:06;26.80;46.20
21355;DHT22;10835;50.148;19.760;2024-02-23T15:25:34;26.70;46.00
21355;DHT22;10835;50.148;19.760;2024-02-23T15:28:09;26.70;46.20